Time;durP1;ratioP1;P1;durP2;ratioP2;P2;SDS_P1;SDS_P2;PMS_P1;PMS_P2;Temp;Humidity;BMP_temperature;BMP_pressure;BME280_temperature;BME280_humidity;BME280_pressure;Samples;Min_cycle;Max_cycle;Signal;HPM_P1;HPM_P2
2022/04/11 00:01:01;;;;;;;5.15;1.67;;;1.30;99.90;;;;;;4989795;28;20022;-50
2022/04/11 00:03:27;;;;;;;3.50;1.60;;;1.30;99.90;;;;;;4989469;28;20027;-50
2022/04/11 00:05:52;;;;;;;2.42;1.60;;;1.30;99.90;;;;;;4988292;28;20476;-48
2022/04/11 00:08:19;;;;;;;1.83;1.50;;;1.30;99.90;;;;;;4988416;28;20432;-49
2022/04/11 00:10:46;;;;;;;3.28;1.95;;;1.20;99.90;;;;;;5028797;23;20037;-48
2022/04/11 00:13:11;;;;;;;3.10;1.80;;;1.20;99.90;;;;;;5003761;28;20061;-48
2022/04/11 00:15:39;;;;;;;5.97;1.65;;;1.20;99.90;;;;;;4989675;28;20590;-49
2022/04/11 00:18:05;;;;;;;2.40;1.80;;;1.20;99.90;;;;;;4990225;28;20042;-47
2022/04/11 00:20:31;;;;;;;2.45;1.88;;;1.10;99.90;;;;;;5019648;28;20018;-53
2022/04/11 00:22:57;;;;;;;6.68;2.35;;;1.20;99.90;;;;;;5011814;28;20435;-50
2022/04/11 00:25:22;;;;;;;3.38;1.50;;;1.10;99.90;;;;;;5008829;28;20612;-51
2022/04/11 00:27:48;;;;;;;2.83;1.55;;;1.10;99.90;;;;;;5009218;28;20061;-48
2022/04/11 00:30:14;;;;;;;4.13;1.98;;;1.10;99.90;;;;;;5006383;28;20073;-48
2022/04/11 00:32:40;;;;;;;1.60;1.42;;;1.10;99.90;;;;;;5008723;28;20033;-50
2022/04/11 00:35:08;;;;;;;7.13;2.25;;;1.10;99.90;;;;;;5008423;28;20026;-50
2022/04/11 00:37:33;;;;;;;2.60;1.70;;;1.00;99.90;;;;;;5008970;28;20362;-46
2022/04/11 00:39:59;;;;;;;6.68;1.83;;;1.00;99.90;;;;;;5007813;28;20025;-47
2022/04/11 00:42:27;;;;;;;4.68;1.63;;;1.00;99.90;;;;;;5008732;28;20022;-46
2022/04/11 00:44:53;;;;;;;4.32;2.05;;;1.00;99.90;;;;;;5009344;28;20092;-48
2022/04/11 00:47:18;;;;;;;3.17;1.63;;;1.00;99.90;;;;;;5009232;28;20030;-46
2022/04/11 00:49:45;;;;;;;5.03;1.83;;;0.90;99.90;;;;;;5009097;28;20053;-51
2022/04/11 00:52:11;;;;;;;3.90;1.88;;;0.90;99.90;;;;;;5009429;28;20036;-47
2022/04/11 00:54:38;;;;;;;3.40;1.63;;;1.00;99.90;;;;;;5009117;28;20030;-50
2022/04/11 00:57:04;;;;;;;3.40;1.45;;;0.90;99.90;;;;;;5008645;28;20037;-50
2022/04/11 00:59:30;;;;;;;3.55;1.92;;;1.00;99.90;;;;;;5006412;28;20133;-47
2022/04/11 01:01:56;;;;;;;2.80;1.70;;;0.90;99.90;;;;;;5006547;28;20030;-48
2022/04/11 01:04:26;;;;;;;4.22;1.40;;;0.90;99.90;;;;;;5007277;28;20026;-50
2022/04/11 01:06:55;;;;;;;3.22;1.83;;;0.90;99.90;;;;;;5009030;28;20026;-48
2022/04/11 01:09:22;;;;;;;2.90;1.58;;;0.90;99.90;;;;;;5009031;28;20399;-47
2022/04/11 01:11:47;;;;;;;4.63;1.63;;;0.90;99.90;;;;;;5011733;28;20037;-49
2022/04/11 01:14:13;;;;;;;6.57;1.98;;;0.80;99.90;;;;;;5010968;28;20079;-50
2022/04/11 01:16:38;;;;;;;5.38;1.70;;;0.80;99.90;;;;;;5012244;28;20111;-50
2022/04/11 01:19:04;;;;;;;3.47;1.65;;;0.80;99.90;;;;;;5012365;28;20125;-47
2022/04/11 01:21:32;;;;;;;6.00;1.70;;;0.80;99.90;;;;;;5011907;28;20041;-48
2022/04/11 01:23:58;;;;;;;4.68;2.10;;;0.80;99.90;;;;;;5012124;28;20050;-49
2022/04/11 01:26:26;;;;;;;4.10;1.80;;;0.80;99.90;;;;;;5010543;28;20076;-50
2022/04/11 01:28:52;;;;;;;2.95;1.50;;;0.70;99.90;;;;;;5012332;28;20026;-48
2022/04/11 01:31:18;;;;;;;2.92;1.60;;;0.70;99.90;;;;;;5012165;28;20038;-49
2022/04/11 01:33:43;;;;;;;3.00;1.65;;;0.60;99.90;;;;;;5011785;28;20071;-48
2022/04/11 01:36:09;;;;;;;4.80;1.95;;;0.70;99.90;;;;;;5012018;28;20120;-48
2022/04/11 01:38:34;;;;;;;3.83;1.58;;;0.60;99.90;;;;;;5011735;28;20034;-48
2022/04/11 01:41:00;;;;;;;3.47;1.80;;;0.60;99.90;;;;;;5011922;28;20034;-49
2022/04/11 01:43:26;;;;;;;6.45;2.00;;;0.60;99.90;;;;;;5011584;28;20033;-50
2022/04/11 01:45:52;;;;;;;3.85;2.05;;;0.60;99.90;;;;;;5012108;28;20021;-49
2022/04/11 01:48:18;;;;;;;2.33;1.60;;;0.60;99.90;;;;;;5011392;28;20033;-50
2022/04/11 01:50:44;;;;;;;2.65;1.63;;;0.60;99.90;;;;;;5010522;28;20030;-50
2022/04/11 01:53:15;;;;;;;3.50;1.75;;;0.60;99.90;;;;;;5011498;28;20022;-47
2022/04/11 01:55:41;;;;;;;3.45;2.08;;;0.60;99.90;;;;;;5011262;28;20519;-48
2022/04/11 01:58:07;;;;;;;4.43;1.88;;;0.60;99.90;;;;;;5011347;28;20029;-48
2022/04/11 02:00:34;;;;;;;4.20;2.25;;;0.60;99.90;;;;;;5011307;28;20033;-49
2022/04/11 02:03:01;;;;;;;4.88;2.05;;;0.60;99.90;;;;;;5010900;28;20026;-47
2022/04/11 02:05:27;;;;;;;2.60;2.13;;;0.60;99.90;;;;;;5011698;28;20105;-50
2022/04/11 02:07:53;;;;;;;4.78;2.42;;;0.60;99.90;;;;;;5011717;28;20030;-48
2022/04/11 02:10:19;;;;;;;5.00;2.28;;;0.60;99.90;;;;;;5009965;28;20038;-49
2022/04/11 02:12:45;;;;;;;5.55;2.10;;;0.50;99.90;;;;;;5011169;28;20026;-48
2022/04/11 02:15:11;;;;;;;4.25;2.10;;;0.50;99.90;;;;;;5011352;28;20396;-48
2022/04/11 02:17:36;;;;;;;3.83;2.38;;;0.50;99.90;;;;;;4991695;28;20027;-48
2022/04/11 02:20:02;;;;;;;4.50;1.90;;;0.50;99.90;;;;;;5006719;28;20428;-50
2022/04/11 02:22:29;;;;;;;3.72;2.05;;;0.50;99.90;;;;;;5011103;28;20046;-46
2022/04/11 02:24:55;;;;;;;4.45;2.78;;;0.50;99.90;;;;;;5011653;28;20014;-47
2022/04/11 02:27:21;;;;;;;2.85;1.63;;;0.50;99.90;;;;;;5011148;28;20018;-49
2022/04/11 02:29:46;;;;;;;4.30;2.42;;;0.40;99.90;;;;;;5010621;28;20512;-49
2022/04/11 02:32:12;;;;;;;3.05;2.10;;;0.40;99.90;;;;;;5010680;28;20590;-48
2022/04/11 02:34:37;;;;;;;8.43;2.63;;;0.40;99.90;;;;;;5010598;28;20030;-50
2022/04/11 02:37:03;;;;;;;4.10;2.03;;;0.40;99.90;;;;;;5010390;28;20386;-51
2022/04/11 02:39:28;;;;;;;9.32;2.17;;;0.40;99.90;;;;;;5010745;28;20095;-47
2022/04/11 02:41:54;;;;;;;5.75;2.40;;;0.40;99.90;;;;;;5010429;28;20428;-48
2022/04/11 02:44:19;;;;;;;2.60;2.30;;;0.30;99.90;;;;;;5010456;28;20057;-48
2022/04/11 02:46:45;;;;;;;5.80;2.20;;;0.30;99.90;;;;;;5010626;28;20543;-50
2022/04/11 02:49:11;;;;;;;4.63;2.40;;;0.30;99.90;;;;;;5009526;28;20201;-46
2022/04/11 02:51:36;;;;;;;2.65;1.50;;;0.30;99.90;;;;;;5010536;28;20116;-50
2022/04/11 02:54:07;;;;;;;1.80;1.70;;;0.20;99.90;;;;;;5010430;28;20030;-49
2022/04/11 02:56:35;;;;;;;4.82;2.13;;;0.20;99.90;;;;;;5010175;28;20076;-48
2022/04/11 02:59:01;;;;;;;5.03;1.90;;;0.20;99.90;;;;;;5010456;28;20057;-47
2022/04/11 03:01:27;;;;;;;2.58;1.70;;;0.20;99.90;;;;;;5010595;28;20172;-49
2022/04/11 03:03:52;;;;;;;3.13;2.15;;;0.20;99.90;;;;;;5009065;28;20026;-51
2022/04/11 03:06:18;;;;;;;3.03;1.70;;;0.20;99.90;;;;;;5008802;28;20452;-49
2022/04/11 03:08:43;;;;;;;1.80;1.67;;;0.10;99.90;;;;;;5010380;28;20582;-49
2022/04/11 03:11:09;;;;;;;4.55;2.15;;;0.10;99.90;;;;;;5009499;28;20034;-49
2022/04/11 03:13:34;;;;;;;6.82;2.25;;;0.10;99.90;;;;;;5010126;28;20025;-46
2022/04/11 03:16:00;;;;;;;3.75;1.80;;;0.10;99.90;;;;;;5008603;28;20112;-46
2022/04/11 03:18:25;;;;;;;5.80;2.08;;;0.10;99.90;;;;;;5009218;28;20029;-48
2022/04/11 03:20:51;;;;;;;3.88;1.75;;;0.10;99.90;;;;;;5009764;28;20034;-47
2022/04/11 03:23:17;;;;;;;3.80;1.55;;;0.10;99.90;;;;;;5006913;28;20022;-47
2022/04/11 03:25:42;;;;;;;3.28;1.70;;;0.10;99.90;;;;;;5006708;28;20030;-47
2022/04/11 03:28:08;;;;;;;2.03;1.55;;;0.10;99.90;;;;;;5008220;28;20466;-47
2022/04/11 03:30:34;;;;;;;5.72;2.20;;;0.00;99.90;;;;;;5010610;28;20498;-48
2022/04/11 03:32:59;;;;;;;3.58;1.55;;;0.00;99.90;;;;;;5009199;28;20108;-48
2022/04/11 03:35:25;;;;;;;7.57;1.88;;;0.00;99.90;;;;;;5009454;28;20034;-50
2022/04/11 03:37:50;;;;;;;2.53;1.60;;;0.00;99.90;;;;;;5007917;28;20030;-48
2022/04/11 03:40:16;;;;;;;3.55;1.63;;;0.00;99.90;;;;;;5009644;28;20025;-49
2022/04/11 03:42:41;;;;;;;7.18;2.17;;;0.00;99.90;;;;;;5008295;28;20029;-49
2022/04/11 03:45:11;;;;;;;4.00;1.67;;;0.00;99.90;;;;;;5009298;28;20029;-49
2022/04/11 03:47:37;;;;;;;6.22;2.20;;;0.00;99.90;;;;;;5009084;28;20092;-49
2022/04/11 03:50:04;;;;;;;3.95;1.55;;;-0.10;99.90;;;;;;5009314;28;20034;-46
2022/04/11 03:52:29;;;;;;;6.63;1.83;;;-0.10;99.90;;;;;;5009666;28;20025;-46
2022/04/11 03:54:55;;;;;;;2.38;1.73;;;-0.10;99.90;;;;;;5009527;28;20092;-49
2022/04/11 03:57:20;;;;;;;8.40;1.70;;;-0.10;99.90;;;;;;5009549;28;20033;-50
2022/04/11 03:59:46;;;;;;;4.38;2.13;;;-0.10;99.90;;;;;;5009120;28;20038;-49
2022/04/11 04:02:12;;;;;;;2.60;1.92;;;-0.10;99.90;;;;;;5009016;28;20034;-48
2022/04/11 04:04:37;;;;;;;4.35;2.00;;;-0.10;99.90;;;;;;5009499;28;20403;-48
2022/04/11 04:07:03;;;;;;;5.13;2.08;;;-0.10;99.90;;;;;;4989842;28;20027;-46
2022/04/11 04:09:29;;;;;;;5.65;1.90;;;-0.10;99.90;;;;;;5005344;28;20453;-48
2022/04/11 04:11:54;;;;;;;2.75;1.50;;;-0.10;99.90;;;;;;5009000;28;20033;-51
2022/04/11 04:14:20;;;;;;;2.97;1.70;;;-0.10;99.90;;;;;;5008085;28;20323;-48
2022/04/11 04:16:45;;;;;;;9.05;2.05;;;-0.20;99.90;;;;;;5007915;28;20554;-47
2022/04/11 04:19:12;;;;;;;2.22;1.48;;;-0.20;99.90;;;;;;5008644;28;20528;-46
2022/04/11 04:21:37;;;;;;;3.00;2.13;;;-0.20;99.90;;;;;;5009070;28;20034;-47
2022/04/11 04:24:03;;;;;;;4.00;2.28;;;-0.20;99.90;;;;;;5008416;28;20092;-46
2022/04/11 04:26:29;;;;;;;6.25;2.08;;;-0.20;99.90;;;;;;5008125;28;20101;-47
2022/04/11 04:28:55;;;;;;;3.25;2.05;;;-0.20;99.90;;;;;;5019235;28;20536;-51
2022/04/11 04:31:20;;;;;;;2.65;2.08;;;-0.20;99.90;;;;;;5009512;28;20118;-49
2022/04/11 04:33:46;;;;;;;4.95;2.05;;;-0.20;99.90;;;;;;5008583;28;20034;-52
2022/04/11 04:36:11;;;;;;;3.75;1.88;;;-0.20;99.90;;;;;;5008699;28;20499;-52
2022/04/11 04:38:37;;;;;;;6.05;2.13;;;-0.20;99.90;;;;;;5007862;28;20037;-49
2022/04/11 04:41:02;;;;;;;1.90;1.70;;;-0.30;99.90;;;;;;5008839;28;20030;-50
2022/04/11 04:43:28;;;;;;;4.38;1.90;;;-0.30;99.90;;;;;;5008799;28;20029;-48
2022/04/11 04:45:53;;;;;;;2.03;1.58;;;-0.30;99.90;;;;;;5011399;28;20029;-48
2022/04/11 04:48:19;;;;;;;4.60;1.90;;;-0.20;99.90;;;;;;5012641;28;20034;-47
2022/04/11 04:50:44;;;;;;;2.85;1.98;;;-0.30;99.90;;;;;;5012184;28;20511;-46
2022/04/11 04:53:10;;;;;;;9.10;2.08;;;-0.30;99.90;;;;;;5012819;28;20515;-48
2022/04/11 04:55:36;;;;;;;4.28;2.05;;;-0.30;99.90;;;;;;5012711;28;20036;-45
2022/04/11 04:58:01;;;;;;;4.07;2.42;;;-0.30;99.90;;;;;;5012878;28;20034;-46
2022/04/11 05:00:27;;;;;;;7.95;2.80;;;-0.30;99.90;;;;;;5012111;28;20123;-49
2022/04/11 05:02:53;;;;;;;4.75;2.40;;;-0.30;99.90;;;;;;5011730;28;20025;-50
2022/04/11 05:05:18;;;;;;;4.90;2.28;;;-0.30;99.90;;;;;;5012209;28;20033;-49
2022/04/11 05:07:44;;;;;;;3.60;2.58;;;-0.20;99.90;;;;;;5012767;28;20022;-48
2022/04/11 05:10:09;;;;;;;6.32;2.50;;;-0.20;99.90;;;;;;5011304;28;20036;-49
2022/04/11 05:12:45;;;;;;;3.53;2.15;;;-0.20;99.90;;;;;;5012096;28;20026;-49
2022/04/11 05:15:12;;;;;;;6.35;2.35;;;-0.20;99.90;;;;;;5012417;28;20026;-49
2022/04/11 05:17:38;;;;;;;5.68;1.90;;;-0.20;99.90;;;;;;4994857;28;20030;-49
2022/04/11 05:20:05;;;;;;;4.30;2.13;;;-0.20;99.90;;;;;;5012543;28;20057;-49
2022/04/11 05:22:31;;;;;;;5.05;2.40;;;-0.10;99.90;;;;;;5011956;28;20037;-48
2022/04/11 05:24:57;;;;;;;9.30;2.15;;;-0.10;99.90;;;;;;5012064;28;20038;-47
2022/04/11 05:27:22;;;;;;;3.40;2.33;;;-0.10;99.90;;;;;;5011735;28;20428;-48
2022/04/11 05:29:48;;;;;;;4.88;2.17;;;-0.10;99.90;;;;;;5011965;28;20105;-47
2022/04/11 05:32:13;;;;;;;4.63;2.35;;;-0.10;99.90;;;;;;5012023;28;20372;-48
2022/04/11 05:34:39;;;;;;;9.93;2.70;;;-0.10;99.90;;;;;;5011735;28;20021;-48
2022/04/11 05:37:06;;;;;;;3.65;2.40;;;0.00;99.90;;;;;;5012428;28;20038;-51
2022/04/11 05:39:31;;;;;;;3.30;2.55;;;0.00;99.90;;;;;;5011732;28;20018;-48
2022/04/11 05:41:57;;;;;;;5.93;2.22;;;0.10;99.90;;;;;;5011408;28;20052;-48
2022/04/11 05:44:22;;;;;;;8.77;2.90;;;0.10;99.90;;;;;;5011601;28;20030;-49
2022/04/11 05:46:52;;;;;;;2.80;2.47;;;0.20;99.90;;;;;;5010410;28;20022;-48
2022/04/11 05:49:19;;;;;;;3.78;2.80;;;0.20;99.90;;;;;;5011375;28;20025;-47
2022/04/11 05:51:46;;;;;;;8.38;2.67;;;0.20;99.90;;;;;;5010195;28;20057;-49
2022/04/11 05:54:11;;;;;;;5.53;2.50;;;0.40;99.90;;;;;;5011721;28;20397;-48
2022/04/11 05:56:37;;;;;;;5.13;2.47;;;0.40;99.90;;;;;;5010799;28;20045;-47
2022/04/11 05:59:03;;;;;;;7.07;2.60;;;0.50;99.90;;;;;;5011685;28;20117;-47
2022/04/11 06:01:30;;;;;;;5.65;2.55;;;0.50;99.90;;;;;;5010566;28;20022;-46
2022/04/11 06:03:56;;;;;;;5.22;3.10;;;0.60;99.90;;;;;;5010908;28;20460;-49
2022/04/11 06:06:21;;;;;;;3.88;2.58;;;0.70;99.90;;;;;;5011360;28;20022;-48
2022/04/11 06:08:47;;;;;;;11.00;3.08;;;0.90;99.90;;;;;;5011070;28;20034;-46
2022/04/11 06:11:13;;;;;;;11.32;3.92;;;1.00;99.90;;;;;;5024470;22;20054;-46
2022/04/11 06:13:42;;;;;;;6.20;3.08;;;1.10;99.90;;;;;;4990458;28;20098;-48
2022/04/11 06:16:08;;;;;;;5.95;2.58;;;1.30;99.90;;;;;;4991497;28;20080;-47
2022/04/11 06:18:33;;;;;;;4.75;2.92;;;1.40;99.90;;;;;;4990951;28;20433;-46
2022/04/11 06:20:59;;;;;;;8.48;3.60;;;1.50;99.90;;;;;;4991646;28;20508;-50
2022/04/11 06:23:25;;;;;;;6.03;3.20;;;1.60;99.90;;;;;;4991215;28;20038;-46
2022/04/11 06:25:50;;;;;;;8.57;3.15;;;1.80;99.90;;;;;;4991107;28;20037;-46
2022/04/11 06:28:16;;;;;;;15.05;2.72;;;1.90;99.90;;;;;;4989221;28;20039;-46
2022/04/11 06:30:41;;;;;;;7.25;2.97;;;2.00;99.90;;;;;;4977764;28;20514;-50
2022/04/11 06:33:07;;;;;;;5.75;3.40;;;2.00;99.90;;;;;;4989580;28;20039;-47
2022/04/11 06:35:32;;;;;;;11.02;3.35;;;2.10;99.90;;;;;;4991648;28;20505;-49
2022/04/11 06:37:58;;;;;;;7.68;3.28;;;2.20;99.90;;;;;;4991462;28;20034;-47
2022/04/11 06:40:23;;;;;;;5.07;3.17;;;2.40;99.90;;;;;;4991332;28;20023;-47
2022/04/11 06:42:49;;;;;;;4.75;2.88;;;2.40;99.90;;;;;;4990804;28;20046;-47
2022/04/11 06:45:15;;;;;;;9.15;2.92;;;2.50;99.90;;;;;;4990973;28;20023;-46
2022/04/11 06:47:42;;;;;;;4.85;2.42;;;2.60;99.90;;;;;;4991215;28;20026;-48
2022/04/11 06:50:08;;;;;;;6.38;3.13;;;2.70;99.90;;;;;;4991363;28;20026;-51
2022/04/11 06:52:33;;;;;;;13.80;2.95;;;2.80;99.90;;;;;;4989393;28;20168;-47
2022/04/11 06:54:59;;;;;;;4.47;2.85;;;2.90;99.90;;;;;;4990924;28;20366;-49
2022/04/11 06:57:24;;;;;;;7.25;2.92;;;3.00;99.90;;;;;;4990865;28;20531;-54
2022/04/11 06:59:50;;;;;;;13.02;3.88;;;3.10;99.90;;;;;;4990759;28;20026;-49
2022/04/11 07:02:17;;;;;;;8.18;2.97;;;3.20;99.90;;;;;;4990172;28;20094;-49
2022/04/11 07:04:43;;;;;;;5.30;3.50;;;3.30;99.90;;;;;;4989703;28;20030;-52
2022/04/11 07:07:08;;;;;;;4.63;2.90;;;3.50;99.90;;;;;;4988751;28;20026;-54
2022/04/11 07:09:34;;;;;;;6.30;3.03;;;3.60;99.90;;;;;;4990021;28;20022;-50
2022/04/11 07:11:59;;;;;;;3.80;2.75;;;3.80;99.90;;;;;;5005471;28;20038;-50
2022/04/11 07:14:25;;;;;;;5.85;3.40;;;4.00;99.90;;;;;;4990394;28;20069;-50
2022/04/11 07:16:52;;;;;;;10.13;3.70;;;4.20;99.90;;;;;;4990693;28;20070;-53
2022/04/11 07:19:19;;;;;;;5.63;2.97;;;4.30;99.90;;;;;;4990340;28;20034;-51
2022/04/11 07:21:46;;;;;;;8.85;3.53;;;4.50;99.90;;;;;;4990403;28;20068;-50
2022/04/11 07:24:12;;;;;;;4.63;3.13;;;4.80;99.90;;;;;;4989849;28;20025;-52
2022/04/11 07:26:37;;;;;;;7.03;3.00;;;5.00;99.90;;;;;;4990550;28;20054;-54
2022/04/11 07:29:03;;;;;;;10.20;3.10;;;5.20;99.90;;;;;;4990179;28;20386;-55
2022/04/11 07:31:29;;;;;;;8.13;2.90;;;5.40;99.90;;;;;;4989227;28;20026;-52
2022/04/11 07:33:55;;;;;;;12.32;3.85;;;5.60;99.90;;;;;;4988420;28;20030;-49
2022/04/11 07:36:21;;;;;;;5.28;2.75;;;5.80;99.90;;;;;;4989802;28;20753;-51
2022/04/11 07:38:46;;;;;;;8.52;3.25;;;6.00;99.90;;;;;;4989461;28;20037;-50
2022/04/11 07:41:12;;;;;;;7.78;2.92;;;6.10;99.90;;;;;;4990029;28;20088;-54
2022/04/11 07:43:38;;;;;;;8.02;3.33;;;6.30;99.90;;;;;;4989562;28;20034;-55
2022/04/11 07:46:05;;;;;;;5.70;3.22;;;6.40;99.90;;;;;;4990161;28;20030;-54
2022/04/11 07:48:31;;;;;;;7.20;2.88;;;6.60;99.90;;;;;;4989517;28;20026;-55
2022/04/11 07:50:57;;;;;;;11.95;3.72;;;6.70;99.90;;;;;;4990214;28;20030;-52
2022/04/11 07:53:22;;;;;;;5.78;3.17;;;6.90;99.90;;;;;;4989583;28;20045;-52
2022/04/11 07:55:48;;;;;;;6.85;2.78;;;7.00;99.90;;;;;;4990288;28;20035;-52
2022/04/11 07:58:15;;;;;;;7.88;3.15;;;7.20;99.90;;;;;;4989566;28;20041;-53
2022/04/11 08:00:41;;;;;;;7.18;2.58;;;7.40;99.90;;;;;;4989976;28;20022;-54
2022/04/11 08:03:07;;;;;;;6.45;2.40;;;7.50;99.90;;;;;;4989060;28;20034;-53
2022/04/11 08:05:32;;;;;;;7.97;3.85;;;7.70;99.90;;;;;;4990443;28;20023;-53
2022/04/11 08:07:58;;;;;;;7.07;3.35;;;7.90;99.90;;;;;;4989594;28;20596;-53
2022/04/11 08:10:23;;;;;;;8.52;3.72;;;8.00;99.90;;;;;;4989695;28;20619;-55
2022/04/11 08:12:59;;;;;;;6.22;3.30;;;8.00;99.90;;;;;;4989212;28;20048;-55
2022/04/11 08:15:27;;;;;;;8.40;3.25;;;7.90;99.90;;;;;;4987455;28;20300;-55
2022/04/11 08:17:56;;;;;;;7.57;3.03;;;7.90;99.90;;;;;;4988337;28;20489;-53
2022/04/11 08:20:25;;;;;;;9.73;3.78;;;8.00;99.90;;;;;;4981839;28;20085;-51
2022/04/11 08:22:51;;;;;;;8.20;3.05;;;7.90;99.90;;;;;;4991927;28;20034;-55
2022/04/11 08:25:17;;;;;;;5.78;2.92;;;8.00;99.90;;;;;;4993155;28;20033;-52
2022/04/11 08:27:43;;;;;;;5.28;3.22;;;8.00;99.90;;;;;;4992802;28;20023;-53
2022/04/11 08:30:10;;;;;;;6.15;2.30;;;8.00;99.90;;;;;;4993442;28;20476;-50
2022/04/11 08:32:40;;;;;;;7.47;2.42;;;8.20;99.90;;;;;;4990610;28;20030;-53
2022/04/11 08:35:07;;;;;;;11.48;2.60;;;8.40;99.90;;;;;;4989265;28;20038;-51
2022/04/11 08:37:37;;;;;;;14.02;3.47;;;8.90;99.90;;;;;;4992716;28;20567;-55
2022/04/11 08:40:04;;;;;;;6.38;2.55;;;9.30;99.90;;;;;;4993344;28;20451;-51
2022/04/11 08:42:30;;;;;;;9.40;3.03;;;9.60;99.90;;;;;;4992236;28;20026;-56
2022/04/11 08:44:58;;;;;;;8.23;2.80;;;9.70;99.90;;;;;;4993030;28;20037;-54
2022/04/11 08:47:23;;;;;;;7.38;2.10;;;9.60;99.90;;;;;;4981379;28;20019;-55
2022/04/11 08:49:50;;;;;;;5.65;1.90;;;9.60;99.90;;;;;;4988092;28;20034;-55
2022/04/11 08:52:17;;;;;;;6.82;2.17;;;9.90;99.90;;;;;;4992815;28;20030;-52
2022/04/11 08:54:43;;;;;;;4.30;2.20;;;10.30;99.90;;;;;;4991889;28;20109;-57
2022/04/11 08:57:08;;;;;;;4.45;1.90;;;10.50;99.90;;;;;;4990668;28;20034;-55
2022/04/11 08:59:34;;;;;;;8.25;2.75;;;10.40;99.90;;;;;;4992269;28;20080;-53
2022/04/11 09:02:00;;;;;;;4.97;2.10;;;10.20;99.90;;;;;;4990653;28;20030;-52
2022/04/11 09:04:26;;;;;;;6.60;2.22;;;9.90;99.90;;;;;;4992194;28;20010;-56
2022/04/11 09:06:59;;;;;;;4.00;2.05;;;9.70;99.90;;;;;;4992092;28;20034;-54
2022/04/11 09:09:40;;;;;;;6.60;2.88;;;9.50;99.90;;;;;;4992178;28;20053;-55
2022/04/11 09:12:10;;;;;;;3.00;2.22;;;9.50;99.90;;;;;;4991736;28;20034;-54
2022/04/11 09:14:37;;;;;;;5.82;1.63;;;9.40;99.90;;;;;;4991448;28;20072;-55
2022/04/11 09:17:03;;;;;;;7.10;1.63;;;9.30;99.90;;;;;;4991775;28;20185;-54
2022/04/11 09:19:29;;;;;;;6.10;1.95;;;9.40;99.90;;;;;;5001794;28;20022;-57
2022/04/11 09:21:55;;;;;;;3.50;1.65;;;9.30;99.90;;;;;;4991722;28;20049;-54
2022/04/11 09:24:26;;;;;;;5.25;1.92;;;9.30;99.90;;;;;;4990659;28;20616;-53
2022/04/11 09:26:54;;;;;;;2.97;2.05;;;9.40;99.90;;;;;;4991894;28;20014;-54
2022/04/11 09:29:20;;;;;;;5.35;2.00;;;9.70;99.90;;;;;;4991762;28;20049;-51
2022/04/11 09:31:46;;;;;;;8.23;2.65;;;9.50;99.90;;;;;;4990626;28;20026;-54
2022/04/11 09:34:28;;;;;;;4.30;2.15;;;9.40;99.90;;;;;;4991658;28;20109;-57
2022/04/11 09:36:55;;;;;;;2.75;1.42;;;9.40;99.90;;;;;;4985318;28;20082;-54
2022/04/11 09:39:26;;;;;;;5.22;1.75;;;9.10;99.90;;;;;;5008265;28;20062;-53
2022/04/11 09:41:52;;;;;;;2.90;1.67;;;8.90;99.90;;;;;;5011401;28;20022;-55
2022/04/11 09:44:26;;;;;;;3.72;1.58;;;8.80;99.90;;;;;;5011756;28;20097;-57
2022/04/11 09:46:55;;;;;;;3.03;1.20;;;8.80;99.90;;;;;;4996862;28;20041;-55
2022/04/11 09:49:21;;;;;;;8.05;1.75;;;8.70;99.90;;;;;;4992453;28;20027;-56
2022/04/11 09:52:07;;;;;;;3.15;1.40;;;8.90;99.90;;;;;;4991932;28;20053;-56
2022/04/11 09:54:34;;;;;;;3.80;2.00;;;9.00;99.90;;;;;;4991818;28;20030;-55
2022/04/11 09:57:01;;;;;;;3.85;1.80;;;8.90;99.90;;;;;;4991414;28;20042;-54
2022/04/11 09:59:26;;;;;;;6.82;1.73;;;8.80;99.90;;;;;;4991434;28;20030;-54
2022/04/11 10:01:54;;;;;;;5.38;1.60;;;9.10;99.90;;;;;;4991365;28;20026;-52
2022/04/11 10:04:21;;;;;;;7.15;2.22;;;9.20;99.90;;;;;;4991264;28;20036;-54
2022/04/11 10:06:47;;;;;;;5.35;1.83;;;9.10;99.90;;;;;;4996919;28;20101;-53
2022/04/11 10:09:14;;;;;;;3.30;1.98;;;9.00;99.90;;;;;;4979547;28;20089;-53
2022/04/11 10:11:44;;;;;;;5.75;1.92;;;9.10;99.90;;;;;;5006577;28;20426;-56
2022/04/11 10:14:17;;;;;;;6.35;2.78;;;9.50;99.90;;;;;;4990646;28;20058;-55
2022/04/11 10:16:44;;;;;;;7.53;3.13;;;9.70;99.90;;;;;;4991209;28;20030;-54
2022/04/11 10:19:13;;;;;;;3.95;2.20;;;9.90;99.90;;;;;;4991688;28;20026;-56
2022/04/11 10:21:43;;;;;;;3.95;2.40;;;9.90;99.90;;;;;;4990330;28;20023;-55
2022/04/11 10:24:33;;;;;;;4.18;1.83;;;10.10;99.90;;;;;;4991269;28;20378;-56
2022/04/11 10:27:19;;;;;;;5.75;2.15;;;10.40;99.90;;;;;;4980104;28;20488;-54
2022/04/11 10:29:45;;;;;;;4.72;2.17;;;10.60;99.90;;;;;;4991647;28;20022;-53
2022/04/11 10:32:13;;;;;;;2.30;1.60;;;10.50;99.90;;;;;;4991293;28;20034;-55
2022/04/11 10:34:55;;;;;;;6.18;2.08;;;10.40;99.90;;;;;;4991094;28;20050;-55
2022/04/11 10:37:26;;;;;;;4.05;1.75;;;10.60;99.90;;;;;;4991665;28;20033;-54
2022/04/11 10:39:54;;;;;;;3.72;1.83;;;10.70;99.90;;;;;;4991180;28;20501;-54
2022/04/11 10:42:25;;;;;;;4.80;1.92;;;10.70;99.90;;;;;;4991189;28;20053;-55
2022/04/11 10:44:58;;;;;;;3.95;1.90;;;10.70;99.90;;;;;;4990720;28;20018;-55
2022/04/11 10:47:26;;;;;;;5.93;1.85;;;11.00;99.90;;;;;;4991176;28;20045;-56
2022/04/11 10:49:55;;;;;;;4.10;2.05;;;11.20;99.90;;;;;;4989520;28;20062;-54
2022/04/11 10:52:34;;;;;;;3.85;2.47;;;11.30;99.90;;;;;;4990987;28;20023;-53
2022/04/11 10:55:07;;;;;;;3.75;1.92;;;11.40;99.90;;;;;;4990481;28;20066;-55
2022/04/11 10:57:33;;;;;;;3.53;1.75;;;11.40;99.90;;;;;;4988400;28;20022;-56
2022/04/11 11:00:09;;;;;;;3.60;1.70;;;11.50;99.90;;;;;;4989154;28;20027;-55
2022/04/11 11:02:52;;;;;;;2.88;1.50;;;11.50;99.90;;;;;;4986133;28;20066;-56
2022/04/11 11:05:25;;;;;;;3.55;1.65;;;11.70;99.90;;;;;;4977614;28;20034;-53
2022/04/11 11:08:12;;;;;;;4.28;1.38;;;11.90;99.90;;;;;;4992331;28;20393;-53
2022/04/11 11:10:38;;;;;;;1.40;1.02;;;11.90;99.80;;;;;;4990806;28;20045;-55
2022/04/11 11:13:36;;;;;;;3.17;1.48;;;11.80;98.30;;;;;;4990437;28;20671;-55
2022/04/11 11:16:07;;;;;;;4.60;1.13;;;11.80;98.80;;;;;;4977991;28;20042;-54
2022/04/11 11:18:53;;;;;;;1.83;1.20;;;11.90;97.50;;;;;;4990664;28;20026;-54
2022/04/11 11:21:44;;;;;;;2.08;1.30;;;11.90;96.40;;;;;;4990770;28;20579;-56
2022/04/11 11:24:12;;;;;;;4.63;1.92;;;12.00;98.50;;;;;;4990113;28;20560;-54
2022/04/11 11:26:46;;;;;;;4.32;1.10;;;12.00;97.10;;;;;;4989767;28;20075;-57
2022/04/11 11:29:31;;;;;;;1.67;0.90;;;11.90;94.60;;;;;;4990595;28;20030;-50
2022/04/11 11:31:59;;;;;;;4.63;1.15;;;11.80;94.60;;;;;;4991789;28;20057;-50
2022/04/11 11:34:30;;;;;;;4.32;1.52;;;11.80;95.90;;;;;;4991457;28;20026;-56
2022/04/11 11:37:03;;;;;;;4.07;1.00;;;11.90;98.80;;;;;;4990321;28;20034;-53
2022/04/11 11:39:30;;;;;;;3.08;1.20;;;12.00;96.30;;;;;;4989086;28;20066;-53
2022/04/11 11:42:05;;;;;;;5.72;1.42;;;12.10;97.10;;;;;;4990266;28;20118;-55
2022/04/11 11:44:32;;;;;;;8.73;1.60;;;12.10;97.90;;;;;;4990463;28;20106;-55
2022/04/11 11:47:00;;;;;;;1.73;1.33;;;12.30;96.90;;;;;;5004704;28;20022;-54
2022/04/11 11:49:38;;;;;;;2.65;1.13;;;12.40;95.70;;;;;;5009899;28;20037;-56
2022/04/11 11:52:09;;;;;;;2.15;1.45;;;12.30;95.10;;;;;;4992370;28;20492;-55
2022/04/11 11:54:40;;;;;;;1.88;1.00;;;12.00;95.70;;;;;;5009434;28;20030;-57
2022/04/11 11:57:19;;;;;;;1.50;1.00;;;12.00;95.40;;;;;;5009663;28;20105;-54
2022/04/11 12:00:03;;;;;;;1.90;1.20;;;12.10;93.30;;;;;;4989286;28;20064;-56
2022/04/11 12:05:23;;;;;;;3.03;0.95;;;12.10;92.50;;;;;;4989553;28;20032;-53
2022/04/11 12:07:52;;;;;;;2.88;1.30;;;12.00;93.00;;;;;;4989844;28;20022;-54
2022/04/11 12:10:18;;;;;;;3.22;1.27;;;12.00;94.10;;;;;;4987571;28;20046;-55
2022/04/11 12:12:45;;;;;;;3.10;1.73;;;12.00;93.80;;;;;;5057373;22;20599;-55
2022/04/11 12:15:11;;;;;;;2.50;1.58;;;12.10;97.00;;;;;;5046751;28;20520;-53
2022/04/11 12:17:39;;;;;;;4.90;1.40;;;12.20;98.60;;;;;;5048441;28;20099;-54
2022/04/11 12:20:13;;;;;;;5.00;1.75;;;12.20;99.50;;;;;;5046926;28;20048;-53
2022/04/11 12:22:40;;;;;;;4.47;1.83;;;12.10;98.40;;;;;;5063926;28;20021;-55
2022/04/11 12:25:27;;;;;;;2.10;1.17;;;11.70;97.90;;;;;;5055675;28;20021;-56
2022/04/11 12:28:18;;;;;;;2.72;1.63;;;11.50;99.90;;;;;;5063932;28;20024;-55
2022/04/11 12:31:16;;;;;;;2.90;1.15;;;11.30;98.10;;;;;;5064144;28;20163;-55
2022/04/11 12:33:49;;;;;;;5.45;1.30;;;11.20;96.60;;;;;;5048774;28;20128;-53
2022/04/11 12:36:22;;;;;;;1.73;1.05;;;11.00;96.50;;;;;;5034041;28;20033;-55
2022/04/11 12:38:59;;;;;;;1.55;1.02;;;10.80;96.50;;;;;;5028828;28;20033;-53
2022/04/11 12:41:44;;;;;;;3.45;1.02;;;10.80;95.80;;;;;;5028517;28;20025;-54
2022/04/11 12:44:18;;;;;;;3.17;1.10;;;10.90;95.40;;;;;;5032056;28;20112;-54
2022/04/11 12:46:46;;;;;;;2.05;0.68;;;11.00;93.10;;;;;;5048396;28;20032;-55
2022/04/11 12:49:17;;;;;;;2.25;0.95;;;10.90;92.00;;;;;;5046771;28;20029;-54
2022/04/11 12:51:56;;;;;;;2.65;1.10;;;11.00;95.50;;;;;;5048272;28;20028;-57
2022/04/11 12:54:22;;;;;;;3.42;1.38;;;11.00;95.10;;;;;;5039361;28;20096;-54
2022/04/11 12:56:53;;;;;;;2.05;1.00;;;11.10;94.00;;;;;;5043017;28;20029;-56
2022/04/11 12:59:30;;;;;;;1.58;0.80;;;11.20;93.90;;;;;;5040150;28;20112;-52